ADDS METAR Data INFO
IDs: Format: Raw Decoded Include TAF

Data at: 1611 UTC 14 Aug 2018

KFME 141554Z AUTO 27006KT 10SM SCT031 A2997 RMK AO1
KFME 141533Z AUTO 25008KT 10SM CLR A2997 RMK AO1
KFME 141512Z AUTO 26008KT 10SM SCT070 A2998 RMK AO1
KFME 141454Z AUTO 27006KT 10SM SCT080 A2998 RMK AO1
KFME 141433Z AUTO 28006KT 10SM CLR A2998 RMK AO1
KFME 141412Z AUTO 28007KT 10SM CLR A2998 RMK AO1
KFME 141354Z AUTO 25007KT 10SM CLR A2998 RMK AO1
KFME 141333Z AUTO 25007KT 10SM CLR A2997 RMK AO1
KFME 141312Z AUTO 25005KT 10SM CLR A2997 RMK AO1
KFME 141254Z AUTO 25005KT 10SM CLR A2998 RMK AO1
KFME 141233Z AUTO 26005KT 10SM CLR A2997 RMK AO1
KFME 141212Z AUTO 27004KT 7SM CLR A2996 RMK AO1
KFME 141154Z AUTO 24003KT 7SM CLR A2996 RMK AO1
KFME 141133Z AUTO 00000KT 5SM CLR A2996 RMK AO1
KFME 141112Z AUTO 00000KT 5SM CLR A2997 RMK AO1
KFME 141054Z AUTO 00000KT 5SM CLR A2996 RMK AO1
KFME 141033Z AUTO 00000KT 5SM CLR A2996 RMK AO1
KFME 141012Z AUTO 00000KT 5SM CLR A2995 RMK AO1
KFME 140954Z AUTO 00000KT 5SM CLR A2995 RMK AO1
KFME 140933Z AUTO 00000KT 5SM CLR A2994 RMK AO1
KFME 140912Z AUTO 00000KT 5SM CLR A2993 RMK AO1
KFME 140854Z AUTO 00000KT 5SM CLR A2993 RMK AO1
KFME 140833Z AUTO 00000KT 5SM CLR A2993 RMK AO1
KFME 140812Z AUTO 00000KT 5SM CLR A2993 RMK AO1
KFME 140754Z AUTO 00000KT 5SM CLR A2993 RMK AO1
KFME 140733Z AUTO 00000KT 5SM CLR A2993 RMK AO1
KFME 140712Z AUTO 00000KT 5SM CLR A2994 RMK AO1
KFME 140654Z AUTO 00000KT 5SM CLR A2993 RMK AO1
KFME 140633Z AUTO 26003KT 4SM CLR A2993 RMK AO1
KFME 140612Z AUTO 00000KT 5SM CLR A2994 RMK AO1
KFME 140554Z AUTO 00000KT 5SM CLR A2995 RMK AO1
KFME 140533Z AUTO 25004KT 5SM CLR A2995 RMK AO1
KFME 140512Z AUTO 00000KT 5SM CLR A2995 RMK AO1
KFME 140454Z AUTO 00000KT 5SM CLR A2995 RMK AO1
KFME 140433Z AUTO 00000KT 7SM CLR A2995 RMK AO1
KFME 140412Z AUTO 00000KT 5SM CLR A2995 RMK AO1
KFME 140354Z AUTO 00000KT 7SM CLR A2995 RMK AO1
KFME 140333Z AUTO 00000KT 7SM CLR A2995 RMK AO1
KFME 140312Z AUTO 00000KT 7SM CLR A2995 RMK AO1
KFME 140254Z AUTO 00000KT 7SM CLR A2995 RMK AO1
KFME 140233Z AUTO 17004KT 7SM CLR A2996 RMK AO1
KFME 140212Z AUTO 00000KT 7SM CLR A2996 RMK AO1
KFME 140154Z AUTO 00000KT 7SM SCT014 A2996 RMK AO1
KFME 140133Z AUTO 00000KT 7SM SCT014 A2997 RMK AO1
KFME 140112Z AUTO 00000KT 10SM CLR A2995 RMK AO1
KFME 140054Z AUTO 00000KT 10SM CLR A2996 RMK AO1
KFME 140033Z AUTO 29003KT 10SM CLR A2995 RMK AO1
KFME 140012Z AUTO 00000KT 10SM CLR A2995 RMK AO1
KFME 132354Z AUTO 00000KT 10SM CLR A2995 RMK AO1
KFME 132333Z AUTO 00000KT 10SM CLR A2995 RMK AO1
KFME 132312Z AUTO 02003KT 10SM CLR A2995 RMK AO1
KFME 132254Z AUTO 00000KT 10SM CLR A2994 RMK AO1
KFME 132233Z AUTO 00000KT 10SM SCT010 A2994 RMK AO1
KFME 132212Z AUTO 00000KT 10SM SCT010 SCT065 SCT075 A2994 RMK AO1
KFME 132154Z AUTO 00000KT 7SM SCT025 SCT043 BKN065 21/20 A2994 RMK AO1
KFME 132133Z AUTO 27014G26KT 4SM SCT024 BKN039 BKN050 23/21 A2993 RMK AO1
KFME 132112Z AUTO 00000KT 10SM SCT037 SCT050 BKN110 26/22 A2992 RMK AO1
KFME 132054Z AUTO 00000KT 10SM SCT060 SCT080 27/21 A2992 RMK AO1
KFME 132033Z AUTO 21004KT 10SM CLR 28/21 A2993 RMK AO1
KFME 132012Z AUTO 22004KT 10SM CLR 28/20 A2993 RMK AO1
KFME 131954Z AUTO 14003KT 10SM CLR 28/20 A2993 RMK AO1
KFME 131933Z AUTO 00000KT 10SM SCT055 SCT065 28/19 A2993 RMK AO1
KFME 131912Z AUTO 00000KT 10SM SCT055 BKN065 27/21 A2994 RMK AO1
KFME 131854Z AUTO 00000KT 10SM SCT065 SCT070 SCT085 28/21 A2995 RMK AO1
KFME 131833Z AUTO 20004KT 10SM SCT036 SCT043 SCT085 28/21 A2996 RMK AO1
KFME 131812Z AUTO 23003KT 10SM SCT036 BKN046 BKN050 27/21 A2997 RMK AO1
KFME 131754Z AUTO 00000KT 10SM SCT060 27/21 A2997 RMK AO1
KFME 131733Z AUTO 28005KT 10SM CLR 28/21 A2998 RMK AO1
KFME 131712Z AUTO 28005KT 10SM SCT029 SCT065 27/20 A2998 RMK AO1
KFME 131654Z AUTO 00000KT 10SM SCT029 SCT065 27/20 A2999 RMK AO1
KFME 131633Z AUTO 00000KT 10SM SCT029 SCT035 SCT055 27/20 A3000 RMK AO1
KFME 131612Z AUTO 00000KT 10SM SCT027 SCT033 SCT055 26/21 A3001 RMK AO1
KFME 131554Z AUTO 00000KT 10SM SCT025 SCT033 26/21 A3001 RMK AO1
KFME 131533Z AUTO 02003KT 10SM BKN025 OVC033 26/21 A3001 RMK AO1
KFME 131512Z AUTO 02006KT 10SM BKN025 BKN033 26/21 A3002 RMK AO1
KFME 131454Z AUTO 02004KT 10SM SCT025 25/20 A3003 RMK AO1
KFME 131433Z AUTO 34003KT 10SM CLR 26/21 A3002 RMK AO1
KFME 131412Z AUTO 03004KT 10SM CLR 24/20 A3002 RMK AO1
KFME 131354Z AUTO 34005KT 10SM CLR 25/20 A3002 RMK AO1
KFME 131333Z AUTO 02007KT 10SM CLR 25/21 A3002 RMK AO1
KFME 131312Z AUTO 34005KT 10SM CLR 23/20 A3001 RMK AO1
KFME 131254Z AUTO 36005KT 10SM CLR 23/21 A3001 RMK AO1
KFME 131233Z AUTO 00000KT 10SM CLR 22/21 A3001 RMK AO1
KFME 131212Z AUTO 35003KT 10SM CLR 21/20 A3002 RMK AO1
KFME 131154Z AUTO 00000KT 5SM CLR 21/21 A3001 RMK AO1
KFME 131133Z AUTO 00000KT 2 1/2SM CLR 20/20 A3001 RMK AO1
KFME 131112Z AUTO 00000KT 2SM CLR 20/20 A3001 RMK AO1
KFME 131054Z AUTO 00000KT 2SM CLR 20/19 A3001 RMK AO1
KFME 131033Z AUTO 00000KT 2SM CLR 20/19 A3000 RMK AO1
KFME 131012Z AUTO 00000KT 3SM CLR 20/20 A3001 RMK AO1
KFME 130954Z AUTO 00000KT 2 1/2SM CLR 20/20 A3001 RMK AO1
KFME 130933Z AUTO 00000KT 3SM BKN047 BKN120 20/20 A3002 RMK AO1
KFME 130912Z AUTO 00000KT 3SM BKN047 20/20 A3002 RMK AO1
KFME 130854Z AUTO 00000KT 7SM CLR 20/20 A3002 RMK AO1
KFME 130833Z AUTO 00000KT 10SM CLR 21/20 A3002 RMK AO1
KFME 130812Z AUTO 00000KT 10SM SCT043 SCT080 SCT110 21/21 A3002 RMK AO1
KFME 130754Z AUTO 00000KT 2SM SCT065 OVC080 21/21 A3001 RMK AO1
KFME 130733Z AUTO 00000KT 2SM SCT004 BKN065 OVC090 21/21 A3001 RMK AO1
KFME 130712Z AUTO 00000KT 2SM SCT004 SCT060 OVC090 21/21 A3001 RMK AO1
KFME 130654Z AUTO 00000KT 1 3/4SM SCT070 BKN090 21/21 A3001 RMK AO1
KFME 130633Z AUTO 00000KT 2SM CLR 21/21 A3002 RMK AO1
KFME 130612Z AUTO 00000KT 2 1/2SM SCT120 21/21 A3003 RMK AO1
KFME 130554Z AUTO 00000KT 1 3/4SM SCT023 BKN120 21/21 A3003 RMK AO1
KFME 130533Z AUTO 00000KT 2SM SCT023 BKN035 OVC120 21/21 A3003 RMK AO1
KFME 130506Z AUTO 00000KT 3SM SCT023 BKN029 BKN120 21/21 A3005 RMK AO1
KFME 130454Z AUTO 00000KT 2SM SCT019 BKN029 21/21 A3004 RMK AO1
KFME 130433Z AUTO 00000KT 2SM SCT029 21/21 A3005 RMK AO1
KFME 130412Z AUTO 00000KT 2SM CLR 21/21 A3004 RMK AO1